Time;durP1;ratioP1;P1;durP2;ratioP2;P2;SDS_P1;SDS_P2;PMS_P1;PMS_P2;Temp;Humidity;BMP_temperature;BMP_pressure;BME280_temperature;BME280_humidity;BME280_pressure;Samples;Min_cycle;Max_cycle;Signal;HPM_P1;HPM_P2
2022/03/20 00:00:31;;;;;;;10.18;5.43;;;7.10;23.20;;;;;;4997444;28;20649;-35
2022/03/20 00:02:57;;;;;;;6.45;4.53;;;7.00;24.40;;;;;;4997301;28;20179;-34
2022/03/20 00:05:23;;;;;;;6.85;4.70;;;7.00;23.80;;;;;;4997473;28;20214;-35
2022/03/20 00:07:49;;;;;;;10.68;6.20;;;6.90;24.40;;;;;;4997449;28;20195;-35
2022/03/20 00:10:16;;;;;;;7.13;4.38;;;6.80;24.40;;;;;;4997300;28;20246;-35
2022/03/20 00:12:42;;;;;;;9.15;5.53;;;6.70;24.30;;;;;;4997187;28;20168;-34
2022/03/20 00:15:09;;;;;;;14.55;4.70;;;6.70;24.30;;;;;;4997167;28;20576;-35
2022/03/20 00:17:36;;;;;;;5.43;4.07;;;6.60;24.10;;;;;;4997100;28;20209;-34
2022/03/20 00:20:03;;;;;;;5.15;3.20;;;6.60;24.20;;;;;;4997155;28;20199;-35
2022/03/20 00:22:30;;;;;;;8.70;4.47;;;6.50;24.40;;;;;;4997161;28;20179;-34
2022/03/20 00:24:57;;;;;;;6.32;4.70;;;6.50;24.20;;;;;;4996688;28;20277;-34
2022/03/20 00:27:23;;;;;;;13.65;7.53;;;6.50;24.20;;;;;;4997037;28;20254;-35
2022/03/20 00:29:50;;;;;;;8.03;4.17;;;6.50;24.20;;;;;;4996962;28;20306;-35
2022/03/20 00:32:16;;;;;;;6.10;3.67;;;6.50;24.00;;;;;;4997149;28;20402;-34
2022/03/20 00:34:42;;;;;;;6.28;4.07;;;6.50;24.00;;;;;;4997038;28;20667;-35
2022/03/20 00:37:09;;;;;;;10.03;5.70;;;6.50;24.00;;;;;;4996601;28;20218;-35
2022/03/20 00:39:35;;;;;;;6.00;4.32;;;6.50;24.00;;;;;;4996708;28;20179;-35
2022/03/20 00:42:01;;;;;;;7.78;4.43;;;6.60;23.90;;;;;;4997015;28;20260;-35
2022/03/20 00:44:27;;;;;;;15.67;5.20;;;6.60;23.90;;;;;;4996650;28;20192;-35
2022/03/20 00:46:53;;;;;;;7.93;5.63;;;6.60;24.00;;;;;;4996465;28;20214;-35
2022/03/20 00:49:18;;;;;;;10.27;3.80;;;6.60;23.90;;;;;;4996469;28;20257;-35
2022/03/20 00:51:44;;;;;;;7.60;3.43;;;6.60;23.90;;;;;;4996825;28;20415;-34
2022/03/20 00:54:13;;;;;;;11.25;5.35;;;6.60;24.00;;;;;;4996723;28;20175;-34
2022/03/20 00:56:39;;;;;;;8.68;3.53;;;6.60;24.00;;;;;;4996450;28;20597;-35
2022/03/20 00:59:05;;;;;;;8.40;4.83;;;6.60;24.00;;;;;;4998467;28;20278;-35
2022/03/20 01:01:31;;;;;;;10.55;4.32;;;6.60;23.90;;;;;;4996280;28;20191;-35
2022/03/20 01:03:57;;;;;;;6.23;4.70;;;6.50;24.00;;;;;;4995866;28;20214;-34
2022/03/20 01:06:23;;;;;;;7.50;4.87;;;6.50;24.00;;;;;;4995935;28;20895;-34
2022/03/20 01:08:49;;;;;;;8.67;6.10;;;6.50;24.10;;;;;;4996165;28;20430;-35
2022/03/20 01:11:15;;;;;;;11.05;4.40;;;6.50;24.20;;;;;;4996317;28;20670;-34
2022/03/20 01:13:41;;;;;;;6.70;4.40;;;6.50;24.00;;;;;;4996470;28;20179;-34
2022/03/20 01:16:06;;;;;;;8.57;5.13;;;6.40;24.00;;;;;;4996033;28;20418;-34
2022/03/20 01:18:32;;;;;;;10.33;5.60;;;6.40;24.00;;;;;;4996391;28;20611;-34
2022/03/20 01:20:58;;;;;;;9.95;5.68;;;6.40;24.00;;;;;;4995945;28;20270;-35
2022/03/20 01:23:24;;;;;;;6.80;4.37;;;6.40;24.00;;;;;;4995918;28;20355;-34
2022/03/20 01:25:51;;;;;;;5.70;4.97;;;6.30;24.00;;;;;;4995886;28;20171;-35
2022/03/20 01:28:18;;;;;;;13.07;5.20;;;6.30;24.20;;;;;;4995924;28;20195;-34
2022/03/20 01:30:45;;;;;;;5.97;4.32;;;6.30;24.00;;;;;;4995863;28;20203;-35
2022/03/20 01:33:11;;;;;;;7.82;5.05;;;6.30;24.10;;;;;;4995880;28;20170;-35
2022/03/20 01:35:37;;;;;;;15.10;7.45;;;6.20;24.10;;;;;;4995456;28;20258;-34
2022/03/20 01:38:05;;;;;;;11.40;5.90;;;6.20;24.30;;;;;;4995794;28;20226;-35
2022/03/20 01:40:31;;;;;;;13.95;7.38;;;6.20;24.40;;;;;;4995661;28;20426;-35
2022/03/20 01:42:56;;;;;;;10.20;6.22;;;6.10;24.60;;;;;;4995895;28;20175;-34
2022/03/20 01:45:24;;;;;;;12.57;6.70;;;6.10;24.30;;;;;;4995448;28;20226;-34
2022/03/20 01:47:52;;;;;;;6.97;5.50;;;6.10;24.50;;;;;;4995563;28;20213;-34
2022/03/20 01:50:21;;;;;;;6.63;4.50;;;6.00;25.30;;;;;;4995645;28;20234;-34
2022/03/20 01:52:49;;;;;;;9.05;5.28;;;6.00;25.10;;;;;;4995558;28;20187;-34
2022/03/20 01:55:17;;;;;;;9.75;5.60;;;5.90;24.80;;;;;;4995415;28;20168;-35
2022/03/20 01:57:44;;;;;;;7.50;4.70;;;5.90;25.30;;;;;;4995489;28;20524;-35
2022/03/20 02:00:12;;;;;;;9.88;4.03;;;5.90;25.60;;;;;;4995606;28;20179;-34
2022/03/20 02:02:39;;;;;;;5.85;4.53;;;5.90;25.50;;;;;;4995238;28;20180;-34
2022/03/20 02:05:09;;;;;;;7.47;2.90;;;5.80;25.40;;;;;;4994927;28;20220;-35
2022/03/20 02:07:36;;;;;;;6.60;4.28;;;5.80;25.50;;;;;;4995470;28;20274;-34
2022/03/20 02:10:03;;;;;;;6.57;3.58;;;5.80;25.50;;;;;;4994998;28;20171;-35
2022/03/20 02:12:29;;;;;;;8.23;4.35;;;5.80;26.00;;;;;;4995354;28;20191;-35
2022/03/20 02:15:01;;;;;;;10.05;5.63;;;5.80;25.00;;;;;;4994805;28;20258;-35
2022/03/20 02:17:28;;;;;;;8.48;3.38;;;5.80;24.80;;;;;;4994464;28;20186;-35
2022/03/20 02:19:59;;;;;;;10.20;6.05;;;5.90;25.30;;;;;;4995063;28;20180;-35
2022/03/20 02:22:25;;;;;;;10.32;4.50;;;5.90;25.10;;;;;;4994982;28;20206;-35
2022/03/20 02:24:52;;;;;;;6.70;3.95;;;5.90;25.10;;;;;;4994706;28;20559;-35
2022/03/20 02:27:23;;;;;;;9.13;5.25;;;5.80;25.10;;;;;;4994776;28;20260;-35
2022/03/20 02:29:57;;;;;;;7.82;5.43;;;5.80;25.00;;;;;;4994624;28;20173;-34
2022/03/20 02:32:27;;;;;;;4.18;3.05;;;5.80;25.00;;;;;;4995157;28;20163;-34
2022/03/20 02:34:55;;;;;;;4.85;3.65;;;5.80;25.20;;;;;;4994704;28;20171;-34
2022/03/20 02:37:23;;;;;;;7.03;3.63;;;5.80;25.50;;;;;;4995203;28;20511;-34
2022/03/20 02:39:54;;;;;;;4.13;2.60;;;5.80;25.20;;;;;;4994917;28;20187;-34
2022/03/20 02:42:21;;;;;;;4.30;3.45;;;5.80;25.20;;;;;;4995045;28;20152;-34
2022/03/20 02:44:55;;;;;;;6.90;4.50;;;5.70;25.60;;;;;;4994534;28;20203;-34
2022/03/20 02:47:23;;;;;;;5.55;4.07;;;5.70;25.80;;;;;;4994355;28;20622;-35
2022/03/20 02:50:11;;;;;;;4.10;3.70;;;5.60;26.10;;;;;;4994647;28;20183;-34
2022/03/20 02:52:39;;;;;;;7.55;4.20;;;5.60;26.40;;;;;;4996621;28;20186;-35
2022/03/20 02:55:05;;;;;;;7.28;3.60;;;5.60;26.00;;;;;;4994074;28;20179;-34
2022/03/20 02:57:32;;;;;;;7.65;3.10;;;5.50;26.10;;;;;;4994494;28;20195;-34
2022/03/20 03:00:00;;;;;;;5.55;3.40;;;5.50;25.70;;;;;;4994242;28;20171;-35
2022/03/20 03:02:30;;;;;;;4.60;3.25;;;5.60;25.70;;;;;;4994419;28;20179;-35
2022/03/20 03:04:59;;;;;;;8.52;4.05;;;5.60;25.70;;;;;;4994079;28;20622;-35
2022/03/20 03:07:29;;;;;;;7.47;4.25;;;5.60;26.00;;;;;;5044895;23;20568;-33
2022/03/20 03:12:39;;;;;;;8.63;2.92;;;5.60;26.30;;;;;;5073546;28;20175;-30
2022/03/20 03:15:21;;;;;;;6.80;3.47;;;5.50;26.50;;;;;;5073226;28;20539;-30
2022/03/20 03:17:50;;;;;;;5.50;3.30;;;5.40;26.50;;;;;;5072566;28;20665;-29
2022/03/20 03:20:19;;;;;;;4.40;3.03;;;5.40;26.70;;;;;;5073420;28;20165;-31
2022/03/20 03:22:45;;;;;;;3.25;2.60;;;5.30;27.10;;;;;;5073549;28;20172;-30
2022/03/20 03:25:11;;;;;;;4.03;3.10;;;5.30;27.00;;;;;;5072944;28;20211;-30
2022/03/20 03:27:37;;;;;;;8.23;3.75;;;5.30;26.80;;;;;;5075311;28;20211;-31
2022/03/20 03:30:04;;;;;;;4.20;2.73;;;5.30;27.00;;;;;;5080112;28;20253;-30
2022/03/20 03:32:30;;;;;;;8.40;3.50;;;5.20;26.40;;;;;;5080085;28;20172;-30
2022/03/20 03:37:40;;;;;;;10.70;3.22;;;5.30;26.00;;;;;;5079754;28;20320;-31
2022/03/20 03:40:07;;;;;;;5.43;2.70;;;5.30;26.00;;;;;;5079801;28;20600;-30
2022/03/20 03:42:34;;;;;;;8.85;4.22;;;5.30;25.80;;;;;;5079978;28;20250;-30
2022/03/20 03:45:01;;;;;;;4.40;2.85;;;5.30;25.60;;;;;;5079727;28;20192;-31
2022/03/20 03:47:28;;;;;;;5.30;3.65;;;5.30;25.60;;;;;;5079844;28;20184;-31
2022/03/20 03:49:54;;;;;;;8.00;4.28;;;5.40;25.40;;;;;;5079645;28;20628;-31
2022/03/20 03:52:20;;;;;;;8.25;3.72;;;5.40;25.40;;;;;;5079794;28;20176;-31
2022/03/20 03:54:47;;;;;;;4.97;2.95;;;5.40;25.30;;;;;;5079691;28;20628;-30
2022/03/20 03:57:13;;;;;;;7.32;3.50;;;5.40;25.20;;;;;;5079267;28;20204;-30
2022/03/20 04:00:34;;;;;;;8.80;3.53;;;5.40;25.40;;;;;;5591584;22;20304;-33
2022/03/20 04:03:00;;;;;;;4.90;2.63;;;5.40;25.30;;;;;;5025406;28;20300;-33
2022/03/20 04:05:28;;;;;;;9.50;3.03;;;5.40;25.30;;;;;;5018790;28;20214;-32
2022/03/20 04:07:54;;;;;;;8.07;3.05;;;5.40;25.30;;;;;;5018575;28;20170;-32
2022/03/20 04:10:20;;;;;;;4.93;2.60;;;5.40;25.10;;;;;;5018116;28;20187;-33
2022/03/20 04:12:46;;;;;;;6.07;3.90;;;5.50;25.00;;;;;;5018243;28;20162;-33
2022/03/20 04:15:14;;;;;;;7.30;3.77;;;5.60;24.80;;;;;;5017195;28;20225;-33
2022/03/20 04:17:41;;;;;;;4.10;2.90;;;5.50;24.80;;;;;;5018260;28;20448;-33
2022/03/20 04:20:08;;;;;;;5.90;3.45;;;5.60;24.70;;;;;;5018081;28;20195;-32
2022/03/20 04:22:39;;;;;;;9.18;3.85;;;5.60;25.20;;;;;;5018313;28;20174;-33
2022/03/20 04:25:06;;;;;;;7.00;3.63;;;5.60;24.60;;;;;;5018228;28;20201;-33
2022/03/20 04:27:32;;;;;;;7.65;3.72;;;5.60;24.50;;;;;;5018346;28;20589;-32
2022/03/20 04:29:58;;;;;;;4.78;3.80;;;5.60;24.30;;;;;;5017658;28;20193;-32
2022/03/20 04:32:24;;;;;;;4.40;3.13;;;5.60;24.50;;;;;;5018244;28;20178;-32
2022/03/20 04:34:50;;;;;;;6.60;4.20;;;5.70;24.50;;;;;;5018322;28;20227;-32
2022/03/20 04:37:17;;;;;;;7.07;3.47;;;5.60;24.30;;;;;;5018222;28;20705;-32
2022/03/20 04:39:43;;;;;;;6.32;4.40;;;5.60;24.30;;;;;;5015075;28;20210;-33
2022/03/20 04:42:09;;;;;;;9.93;4.60;;;5.70;24.30;;;;;;5015102;28;20162;-32
2022/03/20 04:44:39;;;;;;;5.10;3.30;;;5.60;24.10;;;;;;5014949;28;20218;-32
2022/03/20 04:58:28;;;;;;;6.97;3.95;;;5.70;24.30;;;;;;5014995;28;20414;-33
2022/03/20 05:00:50;;;;;;;7.97;3.65;;;5.60;24.20;;;;;;5014415;28;20209;-32
2022/03/20 05:03:16;;;;;;;4.77;2.67;;;5.60;24.80;;;;;;5014484;28;20191;-32
2022/03/20 05:05:41;;;;;;;4.30;3.17;;;5.60;24.10;;;;;;5014684;28;20171;-33
2022/03/20 05:08:07;;;;;;;4.93;3.67;;;5.60;24.40;;;;;;5014685;28;20171;-32
2022/03/20 05:13:19;;;;;;;3.20;2.05;;;5.50;24.70;;;;;;5014766;28;20190;-32
2022/03/20 05:15:45;;;;;;;6.25;4.13;;;5.50;24.80;;;;;;5014458;28;20225;-33
2022/03/20 05:18:11;;;;;;;4.53;3.23;;;6.40;25.10;;;;;;5014410;28;20580;-32
2022/03/20 05:20:37;;;;;;;9.90;4.90;;;5.50;24.90;;;;;;5014088;28;20187;-32
2022/03/20 05:23:02;;;;;;;9.93;3.00;;;5.50;24.90;;;;;;5014207;28;20167;-33
2022/03/20 05:25:28;;;;;;;6.33;3.60;;;5.50;25.00;;;;;;5012891;28;20440;-33
2022/03/20 05:27:55;;;;;;;8.43;4.57;;;5.50;25.10;;;;;;5014171;28;20924;-32
2022/03/20 05:30:21;;;;;;;9.38;2.92;;;5.50;25.00;;;;;;5013887;28;20187;-32
2022/03/20 05:32:48;;;;;;;4.18;2.53;;;5.50;25.10;;;;;;5014204;28;20163;-32
2022/03/20 05:35:16;;;;;;;5.28;3.38;;;5.50;25.10;;;;;;5014044;28;20250;-32
2022/03/20 05:37:43;;;;;;;6.82;3.40;;;5.60;25.00;;;;;;5014066;28;20225;-31
2022/03/20 05:40:09;;;;;;;5.95;4.60;;;5.60;25.10;;;;;;5013639;28;20190;-33
2022/03/20 05:42:36;;;;;;;11.90;4.05;;;5.60;25.10;;;;;;5013892;28;20252;-33
2022/03/20 05:45:06;;;;;;;6.35;3.40;;;5.70;25.20;;;;;;5012584;28;20544;-32
2022/03/20 05:47:32;;;;;;;5.47;3.28;;;5.70;25.30;;;;;;5013852;28;20171;-32
2022/03/20 05:50:02;;;;;;;13.35;5.63;;;5.70;25.30;;;;;;5013474;28;20225;-32
2022/03/20 05:52:31;;;;;;;8.80;4.25;;;5.80;25.30;;;;;;5013755;28;20166;-32
2022/03/20 05:54:57;;;;;;;5.93;3.28;;;5.80;25.30;;;;;;5013786;28;20541;-32
2022/03/20 06:00:16;;;;;;;3.15;2.65;;;5.90;25.30;;;;;;5013348;28;20233;-38
2022/03/20 06:02:43;;;;;;;10.57;3.92;;;6.00;25.20;;;;;;5013687;28;20167;-32
2022/03/20 06:05:09;;;;;;;11.43;4.00;;;6.10;25.10;;;;;;5013337;28;20233;-32
2022/03/20 06:07:43;;;;;;;7.55;3.60;;;6.20;25.00;;;;;;5013523;28;20181;-32
2022/03/20 06:10:12;;;;;;;6.10;3.20;;;6.30;25.10;;;;;;5013224;28;20190;-33
2022/03/20 06:12:38;;;;;;;4.25;3.17;;;6.40;25.30;;;;;;5013338;28;20166;-33
2022/03/20 06:15:08;;;;;;;10.88;5.18;;;6.50;24.80;;;;;;5013334;28;20182;-32
2022/03/20 06:17:39;;;;;;;6.30;3.20;;;6.60;24.40;;;;;;5013230;28;20179;-32
2022/03/20 06:20:09;;;;;;;7.15;3.95;;;6.70;24.30;;;;;;5013053;28;20195;-31
2022/03/20 06:22:36;;;;;;;10.73;5.13;;;6.90;24.00;;;;;;5013226;28;20228;-32
2022/03/20 06:25:08;;;;;;;12.25;3.78;;;7.00;23.20;;;;;;5013117;28;20210;-33
2022/03/20 06:27:44;;;;;;;6.50;4.60;;;7.20;23.70;;;;;;5013134;28;20173;-32
2022/03/20 06:30:10;;;;;;;8.95;4.30;;;7.40;22.60;;;;;;5012687;28;20212;-32
2022/03/20 06:32:37;;;;;;;8.18;4.82;;;7.50;23.00;;;;;;5013408;28;20570;-33
2022/03/20 06:35:05;;;;;;;7.10;3.95;;;7.70;22.60;;;;;;5012935;28;20185;-33
2022/03/20 06:37:35;;;;;;;9.27;4.28;;;7.80;22.10;;;;;;5012952;28;20198;-32
2022/03/20 06:40:02;;;;;;;4.70;3.42;;;7.90;21.30;;;;;;5012635;28;20190;-33
2022/03/20 06:42:28;;;;;;;10.13;3.80;;;8.00;21.10;;;;;;5012815;28;20191;-31
2022/03/20 06:44:55;;;;;;;8.18;4.65;;;8.20;20.60;;;;;;5012793;28;20723;-32
2022/03/20 06:47:23;;;;;;;6.55;3.50;;;8.30;20.20;;;;;;5012910;28;20167;-33
2022/03/20 06:49:49;;;;;;;6.00;3.70;;;8.50;20.10;;;;;;5012606;28;20191;-33
2022/03/20 06:52:15;;;;;;;7.97;5.00;;;8.70;20.00;;;;;;5012968;28;20232;-34
2022/03/20 06:54:40;;;;;;;5.47;3.93;;;8.80;20.00;;;;;;5012633;28;20178;-33
2022/03/20 06:57:06;;;;;;;8.30;4.37;;;9.00;19.40;;;;;;5012570;28;20170;-32
2022/03/20 06:59:32;;;;;;;10.77;3.93;;;9.10;19.30;;;;;;5012355;28;20245;-33
2022/03/20 07:01:58;;;;;;;10.17;4.37;;;9.20;18.90;;;;;;5012137;28;20198;-33
2022/03/20 07:04:23;;;;;;;6.30;4.68;;;9.40;18.60;;;;;;5012303;28;20293;-33
2022/03/20 07:06:49;;;;;;;5.20;4.20;;;9.50;18.30;;;;;;5012534;28;20209;-32
2022/03/20 07:09:15;;;;;;;6.30;3.80;;;9.60;17.90;;;;;;5012167;28;20216;-33
2022/03/20 07:11:40;;;;;;;8.40;4.40;;;9.60;17.70;;;;;;5012374;28;20495;-33
2022/03/20 07:14:06;;;;;;;6.10;3.63;;;9.70;17.80;;;;;;5012388;28;20178;-33
2022/03/20 07:16:33;;;;;;;7.67;4.03;;;9.90;18.20;;;;;;5012366;28;20184;-33
2022/03/20 07:18:59;;;;;;;14.15;6.65;;;10.10;17.60;;;;;;5012127;28;20198;-32
2022/03/20 07:21:25;;;;;;;10.98;5.50;;;10.20;17.70;;;;;;5012294;28;20178;-33
2022/03/20 07:23:54;;;;;;;6.20;4.07;;;10.40;18.00;;;;;;5012210;28;20547;-33
2022/03/20 07:31:48;;;;;;;10.38;6.38;;;10.60;17.40;;;;;;5012485;28;20220;-32
2022/03/20 07:34:14;;;;;;;6.85;4.47;;;10.70;16.90;;;;;;5012258;28;20171;-33
2022/03/20 07:36:40;;;;;;;6.22;4.60;;;10.70;15.70;;;;;;5012185;28;20205;-33
2022/03/20 07:39:06;;;;;;;5.60;5.00;;;10.80;16.60;;;;;;5011944;28;20225;-33
2022/03/20 07:41:32;;;;;;;11.53;4.73;;;10.90;16.10;;;;;;5012243;28;20577;-32
2022/03/20 07:43:57;;;;;;;6.10;4.60;;;11.00;16.10;;;;;;5012130;28;20190;-33
2022/03/20 07:46:23;;;;;;;7.23;4.10;;;11.10;15.60;;;;;;5012204;28;20410;-32
2022/03/20 07:48:50;;;;;;;7.67;4.50;;;11.20;16.00;;;;;;5011871;28;20169;-33
2022/03/20 07:51:17;;;;;;;6.72;3.63;;;11.20;15.80;;;;;;5012038;28;20171;-33
2022/03/20 07:53:43;;;;;;;7.70;4.25;;;11.40;15.80;;;;;;5012152;28;20178;-33
2022/03/20 07:56:09;;;;;;;8.05;5.35;;;11.50;15.60;;;;;;5012078;28;20167;-33
2022/03/20 07:58:35;;;;;;;7.37;5.30;;;11.60;15.10;;;;;;5011786;28;20229;-34
2022/03/20 08:01:00;;;;;;;5.00;4.07;;;11.70;15.70;;;;;;5012045;28;20250;-33
2022/03/20 08:03:26;;;;;;;7.00;3.80;;;11.70;14.70;;;;;;5011856;28;20237;-33
2022/03/20 08:05:52;;;;;;;11.23;4.23;;;11.80;14.70;;;;;;5011912;28;20582;-33
2022/03/20 08:08:17;;;;;;;6.90;4.43;;;11.80;14.20;;;;;;5011879;28;20534;-33
2022/03/20 08:10:43;;;;;;;8.80;4.37;;;11.80;14.90;;;;;;5011655;28;20210;-33
2022/03/20 08:13:11;;;;;;;5.80;4.20;;;12.10;15.00;;;;;;5011918;28;20167;-33
2022/03/20 08:15:38;;;;;;;6.78;3.78;;;12.10;14.70;;;;;;5014383;28;20814;-33
2022/03/20 08:18:08;;;;;;;5.20;3.85;;;12.20;14.10;;;;;;5015824;28;20170;-33
2022/03/20 08:20:34;;;;;;;3.55;2.92;;;12.30;14.10;;;;;;5015535;28;20653;-33
2022/03/20 08:23:00;;;;;;;7.63;4.05;;;12.40;13.70;;;;;;5015399;28;20181;-33
2022/03/20 08:25:26;;;;;;;5.60;3.90;;;12.40;14.30;;;;;;5015110;28;20178;-33
2022/03/20 08:27:53;;;;;;;6.07;3.17;;;12.50;14.50;;;;;;5015394;28;20216;-33
2022/03/20 08:30:20;;;;;;;7.82;3.63;;;12.70;13.40;;;;;;5015051;28;20194;-33
2022/03/20 08:32:47;;;;;;;7.38;4.50;;;12.70;13.10;;;;;;5015352;28;20171;-33
2022/03/20 08:35:14;;;;;;;5.50;3.03;;;12.70;13.40;;;;;;5015256;28;20206;-33
2022/03/20 08:37:44;;;;;;;5.30;3.90;;;12.80;12.80;;;;;;5015157;28;20182;-33
2022/03/20 08:40:17;;;;;;;4.90;3.83;;;12.70;13.00;;;;;;5014888;28;20187;-33
2022/03/20 08:42:44;;;;;;;7.25;4.60;;;12.70;13.30;;;;;;5015137;28;20155;-33
2022/03/20 08:45:14;;;;;;;6.25;4.47;;;12.80;12.90;;;;;;5014975;28;20531;-32
2022/03/20 08:47:40;;;;;;;8.75;4.10;;;13.00;14.00;;;;;;5014935;28;20198;-33
2022/03/20 08:50:07;;;;;;;3.20;2.47;;;13.30;13.50;;;;;;5014755;28;20191;-33
2022/03/20 08:52:33;;;;;;;6.57;4.05;;;13.30;12.90;;;;;;5014748;28;20631;-33
2022/03/20 08:54:58;;;;;;;7.20;3.57;;;13.40;13.10;;;;;;5014998;28;20179;-33
2022/03/20 08:57:27;;;;;;;9.33;4.43;;;13.50;12.90;;;;;;5014775;28;20174;-32
2022/03/20 08:59:54;;;;;;;5.82;4.00;;;13.70;13.70;;;;;;5014453;28;20270;-33
2022/03/20 09:02:20;;;;;;;4.13;3.55;;;13.90;13.00;;;;;;5014633;28;20174;-34
2022/03/20 09:04:46;;;;;;;5.32;3.80;;;13.90;12.10;;;;;;5014479;28;20289;-32
2022/03/20 09:07:12;;;;;;;6.57;3.50;;;14.00;12.70;;;;;;5014633;28;20263;-33
2022/03/20 09:09:37;;;;;;;4.60;3.90;;;14.00;12.60;;;;;;5014304;28;20262;-33
2022/03/20 09:12:03;;;;;;;5.90;3.70;;;14.10;12.90;;;;;;5013228;28;20670;-32
2022/03/20 09:14:29;;;;;;;8.07;4.60;;;14.30;13.10;;;;;;5013019;28;20182;-33
2022/03/20 09:19:41;;;;;;;6.90;4.63;;;14.50;12.60;;;;;;5013700;28;20614;-34
2022/03/20 09:22:06;;;;;;;9.60;4.50;;;14.60;12.70;;;;;;5014170;28;20171;-33
2022/03/20 09:24:33;;;;;;;6.50;3.90;;;14.70;12.50;;;;;;5014231;28;20511;-32
2022/03/20 09:27:00;;;;;;;7.78;3.63;;;14.80;13.40;;;;;;5013754;28;20314;-33
2022/03/20 09:29:26;;;;;;;5.80;4.95;;;14.90;13.10;;;;;;5014565;28;20195;-33
2022/03/20 09:31:52;;;;;;;7.72;4.47;;;15.20;13.50;;;;;;5014201;28;20554;-33
2022/03/20 09:34:18;;;;;;;6.88;4.18;;;15.20;12.20;;;;;;5014165;28;20585;-33
2022/03/20 09:36:44;;;;;;;8.33;3.50;;;15.20;11.50;;;;;;5014050;28;20167;-33
2022/03/20 09:39:10;;;;;;;5.63;3.27;;;15.10;11.60;;;;;;5013856;28;20197;-33
2022/03/20 09:41:40;;;;;;;6.18;3.63;;;15.10;12.10;;;;;;5013992;28;20902;-32
2022/03/20 09:44:07;;;;;;;6.32;4.50;;;15.10;12.20;;;;;;5013795;28;20195;-33
2022/03/20 09:46:34;;;;;;;5.80;4.25;;;15.00;12.60;;;;;;5013971;28;20698;-32
2022/03/20 09:49:02;;;;;;;5.03;3.30;;;15.10;11.50;;;;;;5013828;28;20225;-33
2022/03/20 09:51:28;;;;;;;7.93;3.58;;;15.30;12.60;;;;;;5014158;28;20566;-33
2022/03/20 09:53:54;;;;;;;6.20;3.63;;;15.30;11.30;;;;;;5013853;28;20178;-33
2022/03/20 09:56:20;;;;;;;7.63;4.47;;;15.40;10.80;;;;;;5013651;28;20406;-32
2022/03/20 09:58:45;;;;;;;7.23;3.57;;;15.40;11.50;;;;;;5013492;28;20848;-32
2022/03/20 10:01:11;;;;;;;4.87;3.90;;;15.50;12.00;;;;;;5013616;28;20240;-33
2022/03/20 10:03:37;;;;;;;5.27;4.27;;;15.60;11.10;;;;;;5013427;28;20289;-33
2022/03/20 10:06:16;;;;;;;8.10;4.93;;;15.70;11.20;;;;;;5013515;28;20185;-32
2022/03/20 10:09:00;;;;;;;5.45;3.22;;;15.80;11.90;;;;;;5013274;28;20170;-33
2022/03/20 10:11:26;;;;;;;10.75;4.43;;;15.80;10.70;;;;;;5013513;28;20171;-31
2022/03/20 10:14:11;;;;;;;7.38;3.85;;;15.90;11.00;;;;;;5013337;28;20185;-33
2022/03/20 10:16:42;;;;;;;7.88;4.32;;;16.00;10.40;;;;;;5013338;28;20216;-30
2022/03/20 10:19:23;;;;;;;6.60;3.80;;;16.00;10.70;;;;;;5013113;28;20230;-32
2022/03/20 10:22:06;;;;;;;5.18;4.40;;;16.30;10.70;;;;;;5013291;28;20235;-32
2022/03/20 10:24:39;;;;;;;4.45;3.13;;;16.30;9.90;;;;;;5013257;28;20207;-31
2022/03/20 10:27:05;;;;;;;6.35;3.42;;;16.30;10.00;;;;;;5013296;28;20175;-32
2022/03/20 10:29:32;;;;;;;6.63;3.30;;;16.50;10.40;;;;;;5012936;28;20197;-30
2022/03/20 10:32:08;;;;;;;6.13;3.33;;;16.70;10.00;;;;;;5012991;28;20437;-31
2022/03/20 10:34:54;;;;;;;4.35;3.00;;;16.80;10.40;;;;;;5013002;28;20170;-33
2022/03/20 10:37:41;;;;;;;5.75;3.72;;;16.80;9.90;;;;;;5012280;28;20170;-32
2022/03/20 10:40:09;;;;;;;5.20;3.90;;;16.80;9.00;;;;;;5013063;28;20203;-30
2022/03/20 10:42:35;;;;;;;3.97;3.63;;;16.70;9.30;;;;;;5012931;28;20539;-32
2022/03/20 10:45:05;;;;;;;10.53;4.43;;;16.70;9.60;;;;;;5012779;28;20198;-32
2022/03/20 10:47:31;;;;;;;5.57;3.45;;;16.90;9.90;;;;;;5011556;28;20697;-33
2022/03/20 10:50:09;;;;;;;4.45;3.00;;;16.90;9.90;;;;;;5011441;28;20672;-32
2022/03/20 10:52:36;;;;;;;6.07;3.55;;;16.80;8.30;;;;;;5012476;28;20312;-31
2022/03/20 10:55:17;;;;;;;8.20;4.57;;;16.70;9.50;;;;;;5012977;28;20197;-31
2022/03/20 10:57:43;;;;;;;11.68;5.93;;;16.80;8.90;;;;;;5013243;28;20170;-32
2022/03/20 11:00:11;;;;;;;4.97;3.90;;;16.70;8.70;;;;;;5012319;28;20198;-32
2022/03/20 11:02:39;;;;;;;3.33;2.55;;;16.80;9.50;;;;;;5012728;28;20171;-33
2022/03/20 11:05:06;;;;;;;5.22;3.80;;;16.70;8.80;;;;;;5016286;28;20289;-34
2022/03/20 11:07:32;;;;;;;4.03;3.30;;;16.90;8.90;;;;;;5028313;28;20197;-33
2022/03/20 11:10:00;;;;;;;4.70;3.50;;;16.80;8.70;;;;;;5026544;28;20202;-33
2022/03/20 11:12:33;;;;;;;6.53;2.97;;;17.00;8.60;;;;;;5035113;28;20169;-33
2022/03/20 11:15:04;;;;;;;5.30;3.17;;;17.10;9.30;;;;;;5027999;28;20182;-33
2022/03/20 11:17:48;;;;;;;3.85;2.90;;;17.10;8.60;;;;;;5030335;28;20177;-33
2022/03/20 11:20:16;;;;;;;6.18;3.78;;;17.30;8.20;;;;;;5027320;28;20211;-32
2022/03/20 11:22:50;;;;;;;4.32;3.85;;;17.30;7.80;;;;;;5013776;28;20170;-32
2022/03/20 11:25:21;;;;;;;5.22;3.95;;;17.30;8.80;;;;;;5012501;28;20208;-33
2022/03/20 11:28:01;;;;;;;3.53;2.80;;;17.40;9.00;;;;;;5012561;28;20185;-31
2022/03/20 11:30:32;;;;;;;3.53;2.35;;;17.50;8.10;;;;;;5011552;28;20209;-32
2022/03/20 11:33:02;;;;;;;5.28;2.75;;;17.40;7.50;;;;;;5004294;28;20159;-33
2022/03/20 11:35:30;;;;;;;6.07;2.92;;;17.40;6.90;;;;;;5012216;28;20655;-33
2022/03/20 11:38:11;;;;;;;5.13;3.20;;;17.50;7.60;;;;;;5012155;28;20171;-32
2022/03/20 11:40:41;;;;;;;3.28;2.53;;;17.60;7.20;;;;;;5011975;28;20619;-30
2022/03/20 11:43:19;;;;;;;3.42;2.97;;;17.90;7.80;;;;;;5012191;28;20181;-33
2022/03/20 11:46:19;;;;;;;6.80;4.00;;;18.00;7.00;;;;;;5010836;28;20182;-32
2022/03/20 11:49:04;;;;;;;6.70;3.25;;;18.00;7.10;;;;;;5012880;28;20167;-32
2022/03/20 11:51:52;;;;;;;5.63;2.90;;;18.00;7.60;;;;;;5016087;28;20206;-32
2022/03/20 11:54:18;;;;;;;10.02;5.13;;;18.10;7.70;;;;;;5015237;28;20173;-31
2022/03/20 11:56:43;;;;;;;6.13;4.68;;;18.30;7.80;;;;;;5015365;28;20186;-32
2022/03/20 11:59:43;;;;;;;4.93;3.07;;;18.10;7.00;;;;;;5015273;28;20200;-31
2022/03/20 12:02:15;;;;;;;5.75;3.33;;;18.10;7.80;;;;;;5009383;28;20198;-32
2022/03/20 12:05:04;;;;;;;8.05;3.28;;;18.10;7.20;;;;;;5015843;28;20206;-32
2022/03/20 12:08:25;;;;;;;6.82;4.30;;;18.10;7.80;;;;;;5015724;28;20623;-32
2022/03/20 12:11:22;;;;;;;6.13;3.50;;;18.20;7.90;;;;;;4982121;28;20207;-33
2022/03/20 12:13:56;;;;;;;7.78;4.25;;;18.10;7.20;;;;;;5015694;28;20538;-31
2022/03/20 12:16:45;;;;;;;11.38;4.18;;;18.00;7.20;;;;;;5015613;28;20642;-31
2022/03/20 12:19:19;;;;;;;3.63;3.03;;;18.30;8.60;;;;;;5007459;28;20292;-33
2022/03/20 12:22:06;;;;;;;3.90;2.67;;;18.40;8.00;;;;;;5015578;28;20523;-31
2022/03/20 12:24:35;;;;;;;6.05;4.10;;;18.60;7.50;;;;;;5015411;28;20224;-31
2022/03/20 12:27:19;;;;;;;5.05;3.58;;;18.50;7.50;;;;;;5015444;28;20170;-31
2022/03/20 12:29:45;;;;;;;9.35;5.05;;;18.50;7.70;;;;;;5015694;28;20193;-31
2022/03/20 12:32:12;;;;;;;6.47;3.78;;;18.60;7.60;;;;;;5015619;28;20718;-33
2022/03/20 12:35:04;;;;;;;4.25;3.03;;;18.60;8.00;;;;;;5015568;28;20179;-32
2022/03/20 12:37:30;;;;;;;5.65;2.97;;;18.50;7.00;;;;;;5015079;28;20175;-30
2022/03/20 12:40:24;;;;;;;6.97;4.05;;;18.40;7.50;;;;;;5014869;28;20190;-31
2022/03/20 12:43:10;;;;;;;5.03;2.65;;;18.60;8.70;;;;;;5014991;28;20190;-32
2022/03/20 12:45:57;;;;;;;5.88;3.45;;;18.90;8.70;;;;;;5015376;28;20225;-33
2022/03/20 12:48:23;;;;;;;5.32;3.17;;;19.00;6.80;;;;;;5015032;28;20162;-32
2022/03/20 12:50:55;;;;;;;8.52;4.30;;;18.90;8.00;;;;;;5014547;28;20206;-32
2022/03/20 12:53:23;;;;;;;5.57;4.00;;;18.90;7.20;;;;;;5014813;28;20194;-31
2022/03/20 12:56:00;;;;;;;3.58;2.70;;;18.90;7.90;;;;;;5015804;28;20167;-33
2022/03/20 12:58:27;;;;;;;3.33;2.10;;;19.10;8.30;;;;;;5014638;28;20166;-33
2022/03/20 13:00:55;;;;;;;3.83;2.88;;;19.20;7.00;;;;;;5013610;28;20187;-33
2022/03/20 13:03:22;;;;;;;3.53;2.40;;;19.40;7.10;;;;;;5014494;28;20170;-33
2022/03/20 13:05:58;;;;;;;3.45;2.45;;;19.30;6.90;;;;;;5014578;28;20159;-32
2022/03/20 13:08:34;;;;;;;2.85;2.17;;;19.20;6.60;;;;;;5014556;28;20171;-31
2022/03/20 13:14:12;;;;;;;3.40;2.58;;;19.50;7.20;;;;;;5014620;28;20844;-33
2022/03/20 13:16:51;;;;;;;4.07;2.95;;;19.60;7.50;;;;;;5014406;28;20198;-33
2022/03/20 13:19:31;;;;;;;4.35;2.70;;;19.80;6.80;;;;;;5014226;28;20225;-32
2022/03/20 13:22:01;;;;;;;7.13;4.00;;;19.70;6.90;;;;;;5015842;28;20219;-31
2022/03/20 13:24:32;;;;;;;4.43;3.08;;;19.70;6.70;;;;;;5017700;28;20213;-31
2022/03/20 13:26:59;;;;;;;3.78;2.70;;;19.80;7.90;;;;;;5014327;28;20178;-32
2022/03/20 13:29:25;;;;;;;5.90;3.60;;;20.00;7.50;;;;;;5014199;28;20190;-32
2022/03/20 13:32:01;;;;;;;7.33;3.50;;;20.20;8.50;;;;;;5014213;28;20675;-32
2022/03/20 13:34:26;;;;;;;5.80;3.33;;;20.30;7.50;;;;;;5014168;28;20591;-31
2022/03/20 13:36:52;;;;;;;4.00;2.77;;;20.10;7.10;;;;;;5013940;28;20206;-32